sensor_id;sensor_type;location;lat;lon;timestamp;P1;durP1;ratioP1;P2;durP2;ratioP2
47804;SDS011;33568;45.286;9.900;2023-10-09T00:00:58;29.45;;;15.55;;
47804;SDS011;33568;45.286;9.900;2023-10-09T00:03:29;26.00;;;14.68;;
47804;SDS011;33568;45.286;9.900;2023-10-09T00:06:15;26.63;;;15.73;;
47804;SDS011;33568;45.286;9.900;2023-10-09T00:11:48;19.30;;;13.70;;
47804;SDS011;33568;45.286;9.900;2023-10-09T00:14:14;26.13;;;14.65;;
47804;SDS011;33568;45.286;9.900;2023-10-09T00:17:00;21.27;;;12.32;;
47804;SDS011;33568;45.286;9.900;2023-10-09T00:19:38;17.45;;;13.05;;
47804;SDS011;33568;45.286;9.900;2023-10-09T00:22:07;28.15;;;14.35;;
47804;SDS011;33568;45.286;9.900;2023-10-09T00:24:37;21.77;;;13.77;;
47804;SDS011;33568;45.286;9.900;2023-10-09T00:27:29;19.08;;;12.32;;
47804;SDS011;33568;45.286;9.900;2023-10-09T00:32:47;20.15;;;14.38;;
47804;SDS011;33568;45.286;9.900;2023-10-09T00:35:20;20.98;;;12.93;;
47804;SDS011;33568;45.286;9.900;2023-10-09T00:38:05;24.73;;;12.52;;
47804;SDS011;33568;45.286;9.900;2023-10-09T00:40:59;32.85;;;15.65;;
47804;SDS011;33568;45.286;9.900;2023-10-09T00:43:36;24.13;;;14.60;;
47804;SDS011;33568;45.286;9.900;2023-10-09T00:46:04;42.22;;;17.77;;
47804;SDS011;33568;45.286;9.900;2023-10-09T00:51:38;36.28;;;17.23;;
47804;SDS011;33568;45.286;9.900;2023-10-09T00:54:40;27.52;;;17.65;;
47804;SDS011;33568;45.286;9.900;2023-10-09T00:57:25;16.90;;;11.05;;
47804;SDS011;33568;45.286;9.900;2023-10-09T01:03:35;41.13;;;19.58;;
47804;SDS011;33568;45.286;9.900;2023-10-09T01:06:07;20.63;;;12.20;;
47804;SDS011;33568;45.286;9.900;2023-10-09T01:08:38;38.50;;;19.40;;
47804;SDS011;33568;45.286;9.900;2023-10-09T01:11:26;24.65;;;17.38;;
47804;SDS011;33568;45.286;9.900;2023-10-09T01:14:11;17.25;;;13.15;;
47804;SDS011;33568;45.286;9.900;2023-10-09T01:16:38;26.52;;;16.23;;
47804;SDS011;33568;45.286;9.900;2023-10-09T01:19:42;20.42;;;12.80;;
47804;SDS011;33568;45.286;9.900;2023-10-09T01:22:30;36.72;;;16.35;;
47804;SDS011;33568;45.286;9.900;2023-10-09T01:24:56;25.50;;;16.17;;
47804;SDS011;33568;45.286;9.900;2023-10-09T01:27:23;32.03;;;16.23;;
47804;SDS011;33568;45.286;9.900;2023-10-09T01:29:59;23.90;;;13.17;;
47804;SDS011;33568;45.286;9.900;2023-10-09T01:32:26;23.23;;;13.40;;
47804;SDS011;33568;45.286;9.900;2023-10-09T01:34:52;27.92;;;16.48;;
47804;SDS011;33568;45.286;9.900;2023-10-09T01:38:05;26.33;;;15.75;;
47804;SDS011;33568;45.286;9.900;2023-10-09T01:40:50;26.70;;;17.55;;
47804;SDS011;33568;45.286;9.900;2023-10-09T01:43:35;24.90;;;16.38;;
47804;SDS011;33568;45.286;9.900;2023-10-09T01:46:04;28.05;;;17.23;;
47804;SDS011;33568;45.286;9.900;2023-10-09T01:48:31;31.45;;;16.13;;
47804;SDS011;33568;45.286;9.900;2023-10-09T01:51:01;22.42;;;14.43;;
47804;SDS011;33568;45.286;9.900;2023-10-09T01:53:30;19.55;;;12.88;;
47804;SDS011;33568;45.286;9.900;2023-10-09T01:58:43;31.20;;;16.05;;
47804;SDS011;33568;45.286;9.900;2023-10-09T02:01:13;18.80;;;13.48;;
47804;SDS011;33568;45.286;9.900;2023-10-09T02:03:40;17.30;;;12.57;;
47804;SDS011;33568;45.286;9.900;2023-10-09T02:06:09;27.10;;;13.02;;
47804;SDS011;33568;45.286;9.900;2023-10-09T02:09:13;21.95;;;12.38;;
47804;SDS011;33568;45.286;9.900;2023-10-09T02:12:06;25.83;;;13.57;;
47804;SDS011;33568;45.286;9.900;2023-10-09T02:14:34;23.63;;;13.60;;
47804;SDS011;33568;45.286;9.900;2023-10-09T02:17:07;27.27;;;15.20;;
47804;SDS011;33568;45.286;9.900;2023-10-09T02:20:04;23.33;;;14.40;;
47804;SDS011;33568;45.286;9.900;2023-10-09T02:22:43;20.13;;;12.90;;
47804;SDS011;33568;45.286;9.900;2023-10-09T02:25:09;20.02;;;12.38;;
47804;SDS011;33568;45.286;9.900;2023-10-09T02:27:56;21.50;;;12.68;;
47804;SDS011;33568;45.286;9.900;2023-10-09T02:30:25;24.65;;;13.15;;
47804;SDS011;33568;45.286;9.900;2023-10-09T02:33:14;22.40;;;12.18;;
47804;SDS011;33568;45.286;9.900;2023-10-09T02:35:59;24.15;;;12.88;;
47804;SDS011;33568;45.286;9.900;2023-10-09T02:39:03;17.55;;;12.05;;
47804;SDS011;33568;45.286;9.900;2023-10-09T02:41:33;29.15;;;14.27;;
47804;SDS011;33568;45.286;9.900;2023-10-09T02:44:00;23.50;;;14.48;;
47804;SDS011;33568;45.286;9.900;2023-10-09T02:46:36;24.05;;;12.38;;
47804;SDS011;33568;45.286;9.900;2023-10-09T02:49:02;24.33;;;13.52;;
47804;SDS011;33568;45.286;9.900;2023-10-09T02:51:50;24.52;;;12.98;;
47804;SDS011;33568;45.286;9.900;2023-10-09T02:54:19;22.30;;;12.23;;
47804;SDS011;33568;45.286;9.900;2023-10-09T02:56:49;20.38;;;13.32;;
47804;SDS011;33568;45.286;9.900;2023-10-09T02:59:50;25.23;;;14.55;;
47804;SDS011;33568;45.286;9.900;2023-10-09T03:02:19;24.88;;;14.30;;
47804;SDS011;33568;45.286;9.900;2023-10-09T03:05:05;19.38;;;13.05;;
47804;SDS011;33568;45.286;9.900;2023-10-09T03:07:32;26.40;;;14.65;;
47804;SDS011;33568;45.286;9.900;2023-10-09T03:10:00;21.92;;;13.65;;
47804;SDS011;33568;45.286;9.900;2023-10-09T03:12:44;24.58;;;12.82;;
47804;SDS011;33568;45.286;9.900;2023-10-09T03:15:31;27.92;;;14.93;;
47804;SDS011;33568;45.286;9.900;2023-10-09T03:18:20;22.85;;;12.27;;
47804;SDS011;33568;45.286;9.900;2023-10-09T03:20:46;22.85;;;13.50;;
47804;SDS011;33568;45.286;9.900;2023-10-09T03:23:32;23.23;;;13.38;;
47804;SDS011;33568;45.286;9.900;2023-10-09T03:25:59;24.42;;;14.82;;
47804;SDS011;33568;45.286;9.900;2023-10-09T03:28:27;26.45;;;14.10;;
47804;SDS011;33568;45.286;9.900;2023-10-09T03:34:16;28.40;;;14.38;;
47804;SDS011;33568;45.286;9.900;2023-10-09T03:39:31;32.83;;;14.18;;
47804;SDS011;33568;45.286;9.900;2023-10-09T03:42:12;23.92;;;14.85;;
47804;SDS011;33568;45.286;9.900;2023-10-09T03:44:45;25.65;;;16.15;;
47804;SDS011;33568;45.286;9.900;2023-10-09T03:47:18;30.98;;;15.55;;
47804;SDS011;33568;45.286;9.900;2023-10-09T03:49:48;30.00;;;16.42;;
47804;SDS011;33568;45.286;9.900;2023-10-09T03:55:22;27.48;;;16.45;;
47804;SDS011;33568;45.286;9.900;2023-10-09T03:57:54;26.58;;;12.40;;
47804;SDS011;33568;45.286;9.900;2023-10-09T04:00:42;21.58;;;12.52;;
47804;SDS011;33568;45.286;9.900;2023-10-09T04:03:12;22.98;;;13.88;;
47804;SDS011;33568;45.286;9.900;2023-10-09T04:05:40;24.08;;;13.23;;
47804;SDS011;33568;45.286;9.900;2023-10-09T04:08:27;23.83;;;14.20;;
47804;SDS011;33568;45.286;9.900;2023-10-09T04:10:56;21.00;;;13.07;;
47804;SDS011;33568;45.286;9.900;2023-10-09T04:13:31;24.70;;;15.02;;
47804;SDS011;33568;45.286;9.900;2023-10-09T04:16:01;17.50;;;11.07;;
47804;SDS011;33568;45.286;9.900;2023-10-09T04:18:47;23.80;;;12.75;;
47804;SDS011;33568;45.286;9.900;2023-10-09T04:21:37;33.30;;;12.68;;
47804;SDS011;33568;45.286;9.900;2023-10-09T04:27:08;21.35;;;12.07;;
47804;SDS011;33568;45.286;9.900;2023-10-09T04:30:02;28.40;;;13.52;;
47804;SDS011;33568;45.286;9.900;2023-10-09T04:32:28;20.15;;;11.20;;
47804;SDS011;33568;45.286;9.900;2023-10-09T04:38:07;30.10;;;13.90;;
47804;SDS011;33568;45.286;9.900;2023-10-09T04:40:34;17.20;;;10.65;;
47804;SDS011;33568;45.286;9.900;2023-10-09T04:43:24;29.08;;;12.35;;
47804;SDS011;33568;45.286;9.900;2023-10-09T04:46:10;20.38;;;9.98;;
47804;SDS011;33568;45.286;9.900;2023-10-09T04:48:57;24.38;;;10.25;;
47804;SDS011;33568;45.286;9.900;2023-10-09T04:52:00;17.02;;;11.13;;
47804;SDS011;33568;45.286;9.900;2023-10-09T04:55:04;33.25;;;11.98;;
47804;SDS011;33568;45.286;9.900;2023-10-09T04:57:52;30.50;;;11.38;;
47804;SDS011;33568;45.286;9.900;2023-10-09T05:00:34;34.75;;;12.82;;
47804;SDS011;33568;45.286;9.900;2023-10-09T05:03:01;34.90;;;11.98;;
47804;SDS011;33568;45.286;9.900;2023-10-09T05:05:49;21.50;;;9.80;;
47804;SDS011;33568;45.286;9.900;2023-10-09T05:08:24;35.58;;;11.82;;
47804;SDS011;33568;45.286;9.900;2023-10-09T05:10:55;23.15;;;10.18;;
47804;SDS011;33568;45.286;9.900;2023-10-09T05:13:30;31.90;;;11.05;;
47804;SDS011;33568;45.286;9.900;2023-10-09T05:16:09;24.80;;;9.70;;
47804;SDS011;33568;45.286;9.900;2023-10-09T05:18:55;23.58;;;10.05;;
47804;SDS011;33568;45.286;9.900;2023-10-09T05:21:24;20.33;;;8.60;;
47804;SDS011;33568;45.286;9.900;2023-10-09T05:24:01;21.23;;;9.80;;
47804;SDS011;33568;45.286;9.900;2023-10-09T05:26:41;21.13;;;9.20;;
47804;SDS011;33568;45.286;9.900;2023-10-09T05:29:27;21.05;;;8.90;;
47804;SDS011;33568;45.286;9.900;2023-10-09T05:32:12;20.98;;;8.77;;
47804;SDS011;33568;45.286;9.900;2023-10-09T05:34:57;22.05;;;9.02;;
47804;SDS011;33568;45.286;9.900;2023-10-09T05:37:42;17.42;;;7.85;;
47804;SDS011;33568;45.286;9.900;2023-10-09T05:40:09;19.75;;;8.45;;
47804;SDS011;33568;45.286;9.900;2023-10-09T05:42:41;24.08;;;8.25;;
47804;SDS011;33568;45.286;9.900;2023-10-09T05:45:26;24.80;;;8.85;;
47804;SDS011;33568;45.286;9.900;2023-10-09T05:48:12;17.83;;;8.48;;
47804;SDS011;33568;45.286;9.900;2023-10-09T05:53:25;23.50;;;7.97;;
47804;SDS011;33568;45.286;9.900;2023-10-09T05:56:09;15.27;;;6.55;;
47804;SDS011;33568;45.286;9.900;2023-10-09T05:58:55;16.80;;;6.38;;
47804;SDS011;33568;45.286;9.900;2023-10-09T06:01:40;16.58;;;6.97;;
47804;SDS011;33568;45.286;9.900;2023-10-09T06:04:24;24.80;;;8.35;;
47804;SDS011;33568;45.286;9.900;2023-10-09T06:07:29;23.13;;;6.97;;
47804;SDS011;33568;45.286;9.900;2023-10-09T06:10:15;19.77;;;7.13;;
47804;SDS011;33568;45.286;9.900;2023-10-09T06:13:03;30.23;;;7.93;;
47804;SDS011;33568;45.286;9.900;2023-10-09T06:15:35;16.25;;;7.05;;
47804;SDS011;33568;45.286;9.900;2023-10-09T06:18:35;22.02;;;7.45;;
47804;SDS011;33568;45.286;9.900;2023-10-09T06:21:01;17.02;;;6.40;;
47804;SDS011;33568;45.286;9.900;2023-10-09T06:23:46;21.70;;;7.55;;
47804;SDS011;33568;45.286;9.900;2023-10-09T06:26:41;20.73;;;5.85;;
47804;SDS011;33568;45.286;9.900;2023-10-09T06:29:29;19.80;;;7.75;;
47804;SDS011;33568;45.286;9.900;2023-10-09T06:32:14;31.67;;;8.00;;
47804;SDS011;33568;45.286;9.900;2023-10-09T06:34:44;26.15;;;7.82;;
47804;SDS011;33568;45.286;9.900;2023-10-09T06:37:19;25.75;;;9.15;;
47804;SDS011;33568;45.286;9.900;2023-10-09T06:39:53;22.15;;;8.00;;
47804;SDS011;33568;45.286;9.900;2023-10-09T06:42:21;20.27;;;7.60;;
47804;SDS011;33568;45.286;9.900;2023-10-09T06:45:28;26.33;;;8.13;;
47804;SDS011;33568;45.286;9.900;2023-10-09T06:51:04;22.83;;;7.90;;
47804;SDS011;33568;45.286;9.900;2023-10-09T06:53:50;21.38;;;7.10;;
47804;SDS011;33568;45.286;9.900;2023-10-09T06:58:59;20.80;;;6.75;;
47804;SDS011;33568;45.286;9.900;2023-10-09T07:01:48;19.95;;;7.30;;
47804;SDS011;33568;45.286;9.900;2023-10-09T07:04:36;21.48;;;6.25;;
47804;SDS011;33568;45.286;9.900;2023-10-09T07:07:03;22.73;;;6.30;;
47804;SDS011;33568;45.286;9.900;2023-10-09T07:09:38;19.80;;;7.40;;
47804;SDS011;33568;45.286;9.900;2023-10-09T07:12:08;16.65;;;7.03;;
47804;SDS011;33568;45.286;9.900;2023-10-09T07:14:39;14.35;;;6.22;;
47804;SDS011;33568;45.286;9.900;2023-10-09T07:17:42;17.17;;;7.25;;
47804;SDS011;33568;45.286;9.900;2023-10-09T07:20:11;23.20;;;7.80;;
47804;SDS011;33568;45.286;9.900;2023-10-09T07:23:15;23.02;;;7.63;;
47804;SDS011;33568;45.286;9.900;2023-10-09T07:25:41;16.75;;;6.72;;
47804;SDS011;33568;45.286;9.900;2023-10-09T07:28:21;19.63;;;5.93;;
47804;SDS011;33568;45.286;9.900;2023-10-09T07:31:08;23.65;;;7.95;;
47804;SDS011;33568;45.286;9.900;2023-10-09T07:34:19;34.38;;;6.53;;
47804;SDS011;33568;45.286;9.900;2023-10-09T07:37:45;27.17;;;7.13;;
47804;SDS011;33568;45.286;9.900;2023-10-09T07:40:16;24.65;;;7.30;;
47804;SDS011;33568;45.286;9.900;2023-10-09T07:42:43;20.30;;;6.70;;
47804;SDS011;33568;45.286;9.900;2023-10-09T07:45:10;19.92;;;7.88;;
47804;SDS011;33568;45.286;9.900;2023-10-09T07:47:57;22.45;;;6.97;;
47804;SDS011;33568;45.286;9.900;2023-10-09T07:50:27;19.88;;;6.10;;
47804;SDS011;33568;45.286;9.900;2023-10-09T07:53:15;20.45;;;7.18;;
47804;SDS011;33568;45.286;9.900;2023-10-09T07:55:54;18.13;;;5.78;;
47804;SDS011;33568;45.286;9.900;2023-10-09T07:58:22;19.13;;;5.40;;
47804;SDS011;33568;45.286;9.900;2023-10-09T08:00:56;17.85;;;5.13;;
47804;SDS011;33568;45.286;9.900;2023-10-09T08:03:51;29.42;;;7.35;;
47804;SDS011;33568;45.286;9.900;2023-10-09T08:06:24;19.48;;;6.28;;
47804;SDS011;33568;45.286;9.900;2023-10-09T08:09:48;25.60;;;6.57;;
47804;SDS011;33568;45.286;9.900;2023-10-09T08:12:33;24.40;;;7.45;;
47804;SDS011;33568;45.286;9.900;2023-10-09T08:15:14;23.85;;;5.63;;
47804;SDS011;33568;45.286;9.900;2023-10-09T08:18:18;26.15;;;5.55;;
47804;SDS011;33568;45.286;9.900;2023-10-09T08:21:10;24.92;;;6.28;;
47804;SDS011;33568;45.286;9.900;2023-10-09T08:23:36;16.58;;;5.90;;
47804;SDS011;33568;45.286;9.900;2023-10-09T08:26:15;26.38;;;7.78;;
47804;SDS011;33568;45.286;9.900;2023-10-09T08:31:43;19.08;;;6.35;;
47804;SDS011;33568;45.286;9.900;2023-10-09T08:34:13;22.35;;;5.50;;
47804;SDS011;33568;45.286;9.900;2023-10-09T08:37:16;27.67;;;6.95;;
47804;SDS011;33568;45.286;9.900;2023-10-09T08:42:33;28.55;;;6.38;;
47804;SDS011;33568;45.286;9.900;2023-10-09T08:45:01;27.83;;;5.70;;
47804;SDS011;33568;45.286;9.900;2023-10-09T08:47:49;24.40;;;5.65;;
47804;SDS011;33568;45.286;9.900;2023-10-09T08:53:03;21.65;;;6.32;;
47804;SDS011;33568;45.286;9.900;2023-10-09T08:55:30;22.13;;;6.25;;
47804;SDS011;33568;45.286;9.900;2023-10-09T08:57:56;19.48;;;5.68;;
47804;SDS011;33568;45.286;9.900;2023-10-09T09:00:24;27.38;;;6.10;;
47804;SDS011;33568;45.286;9.900;2023-10-09T09:02:52;20.65;;;5.65;;
47804;SDS011;33568;45.286;9.900;2023-10-09T09:05:19;19.55;;;5.03;;
47804;SDS011;33568;45.286;9.900;2023-10-09T09:08:20;26.90;;;5.82;;
47804;SDS011;33568;45.286;9.900;2023-10-09T09:10:59;15.88;;;5.95;;
47804;SDS011;33568;45.286;9.900;2023-10-09T09:14:34;26.83;;;5.38;;
47804;SDS011;33568;45.286;9.900;2023-10-09T09:17:39;18.33;;;5.07;;
47804;SDS011;33568;45.286;9.900;2023-10-09T09:20:26;18.98;;;5.15;;
47804;SDS011;33568;45.286;9.900;2023-10-09T09:23:02;23.65;;;6.50;;
47804;SDS011;33568;45.286;9.900;2023-10-09T09:25:50;20.33;;;5.40;;
47804;SDS011;33568;45.286;9.900;2023-10-09T09:28:27;22.45;;;5.20;;
47804;SDS011;33568;45.286;9.900;2023-10-09T09:31:11;18.15;;;5.57;;
47804;SDS011;33568;45.286;9.900;2023-10-09T09:33:39;14.70;;;5.57;;
47804;SDS011;33568;45.286;9.900;2023-10-09T09:36:06;24.40;;;5.40;;
47804;SDS011;33568;45.286;9.900;2023-10-09T09:42:03;27.25;;;6.18;;
47804;SDS011;33568;45.286;9.900;2023-10-09T09:44:33;16.33;;;5.25;;
47804;SDS011;33568;45.286;9.900;2023-10-09T09:49:56;27.40;;;6.10;;
47804;SDS011;33568;45.286;9.900;2023-10-09T09:52:44;23.83;;;6.03;;
47804;SDS011;33568;45.286;9.900;2023-10-09T09:55:33;25.13;;;5.82;;
47804;SDS011;33568;45.286;9.900;2023-10-09T09:58:21;17.10;;;6.18;;
47804;SDS011;33568;45.286;9.900;2023-10-09T10:06:47;31.63;;;6.27;;
47804;SDS011;33568;45.286;9.900;2023-10-09T10:15:12;24.10;;;6.47;;
47804;SDS011;33568;45.286;9.900;2023-10-09T10:23:52;16.70;;;5.85;;
47804;SDS011;33568;45.286;9.900;2023-10-09T10:26:19;27.25;;;6.75;;
47804;SDS011;33568;45.286;9.900;2023-10-09T10:32:08;20.42;;;6.95;;
47804;SDS011;33568;45.286;9.900;2023-10-09T10:34:51;26.48;;;6.40;;
47804;SDS011;33568;45.286;9.900;2023-10-09T10:37:37;21.58;;;6.60;;
47804;SDS011;33568;45.286;9.900;2023-10-09T10:40:47;27.25;;;6.28;;
47804;SDS011;33568;45.286;9.900;2023-10-09T10:43:32;16.45;;;5.30;;
47804;SDS011;33568;45.286;9.900;2023-10-09T10:46:13;20.30;;;5.72;;
47804;SDS011;33568;45.286;9.900;2023-10-09T10:48:50;21.65;;;5.30;;
47804;SDS011;33568;45.286;9.900;2023-10-09T10:54:45;19.23;;;4.90;;
47804;SDS011;33568;45.286;9.900;2023-10-09T10:57:17;25.40;;;5.85;;
47804;SDS011;33568;45.286;9.900;2023-10-09T11:00:35;17.88;;;4.82;;
47804;SDS011;33568;45.286;9.900;2023-10-09T11:03:39;28.63;;;6.38;;
47804;SDS011;33568;45.286;9.900;2023-10-09T11:06:39;28.60;;;5.47;;
47804;SDS011;33568;45.286;9.900;2023-10-09T11:12:50;22.67;;;5.38;;
47804;SDS011;33568;45.286;9.900;2023-10-09T11:15:32;22.65;;;5.38;;
47804;SDS011;33568;45.286;9.900;2023-10-09T11:18:28;19.83;;;5.53;;
47804;SDS011;33568;45.286;9.900;2023-10-09T11:20:55;16.20;;;5.47;;
47804;SDS011;33568;45.286;9.900;2023-10-09T11:23:32;19.55;;;5.32;;
47804;SDS011;33568;45.286;9.900;2023-10-09T11:26:17;24.48;;;5.65;;
47804;SDS011;33568;45.286;9.900;2023-10-09T11:31:59;24.10;;;5.65;;
47804;SDS011;33568;45.286;9.900;2023-10-09T11:35:09;20.45;;;5.30;;
47804;SDS011;33568;45.286;9.900;2023-10-09T11:37:58;23.13;;;6.28;;
47804;SDS011;33568;45.286;9.900;2023-10-09T11:43:13;19.58;;;5.13;;
47804;SDS011;33568;45.286;9.900;2023-10-09T11:46:07;13.95;;;4.68;;
47804;SDS011;33568;45.286;9.900;2023-10-09T11:48:37;25.42;;;6.28;;
47804;SDS011;33568;45.286;9.900;2023-10-09T11:57:43;22.17;;;4.75;;
47804;SDS011;33568;45.286;9.900;2023-10-09T12:00:28;16.42;;;5.28;;
47804;SDS011;33568;45.286;9.900;2023-10-09T12:02:55;19.50;;;5.55;;
47804;SDS011;33568;45.286;9.900;2023-10-09T12:06:18;24.55;;;4.63;;
47804;SDS011;33568;45.286;9.900;2023-10-09T12:08:48;21.83;;;5.75;;
47804;SDS011;33568;45.286;9.900;2023-10-09T12:11:42;25.30;;;5.45;;
47804;SDS011;33568;45.286;9.900;2023-10-09T12:14:08;22.90;;;5.50;;
47804;SDS011;33568;45.286;9.900;2023-10-09T12:16:54;18.80;;;5.22;;
47804;SDS011;33568;45.286;9.900;2023-10-09T12:19:20;24.45;;;6.15;;
47804;SDS011;33568;45.286;9.900;2023-10-09T12:21:47;21.45;;;5.45;;
47804;SDS011;33568;45.286;9.900;2023-10-09T12:24:32;19.85;;;4.95;;
47804;SDS011;33568;45.286;9.900;2023-10-09T12:27:00;24.95;;;6.22;;
47804;SDS011;33568;45.286;9.900;2023-10-09T12:32:48;19.52;;;4.88;;
47804;SDS011;33568;45.286;9.900;2023-10-09T12:35:15;21.13;;;5.47;;
47804;SDS011;33568;45.286;9.900;2023-10-09T12:40:29;19.98;;;5.25;;
47804;SDS011;33568;45.286;9.900;2023-10-09T12:43:17;19.63;;;4.82;;
47804;SDS011;33568;45.286;9.900;2023-10-09T12:46:06;28.20;;;5.37;;
47804;SDS011;33568;45.286;9.900;2023-10-09T12:48:52;16.38;;;4.95;;
47804;SDS011;33568;45.286;9.900;2023-10-09T12:51:20;26.05;;;5.57;;
47804;SDS011;33568;45.286;9.900;2023-10-09T12:54:06;20.38;;;5.68;;
47804;SDS011;33568;45.286;9.900;2023-10-09T12:56:33;18.13;;;5.15;;
47804;SDS011;33568;45.286;9.900;2023-10-09T12:59:18;16.15;;;4.82;;
47804;SDS011;33568;45.286;9.900;2023-10-09T13:02:04;24.87;;;5.27;;
47804;SDS011;33568;45.286;9.900;2023-10-09T13:04:50;25.70;;;5.90;;
47804;SDS011;33568;45.286;9.900;2023-10-09T13:07:16;20.65;;;5.78;;
47804;SDS011;33568;45.286;9.900;2023-10-09T13:10:06;19.80;;;5.22;;
47804;SDS011;33568;45.286;9.900;2023-10-09T13:12:37;21.20;;;5.72;;
47804;SDS011;33568;45.286;9.900;2023-10-09T13:15:25;17.70;;;4.75;;
47804;SDS011;33568;45.286;9.900;2023-10-09T13:17:53;25.67;;;5.63;;
47804;SDS011;33568;45.286;9.900;2023-10-09T13:20:20;26.67;;;5.53;;
47804;SDS011;33568;45.286;9.900;2023-10-09T13:23:05;23.13;;;5.68;;
47804;SDS011;33568;45.286;9.900;2023-10-09T13:26:08;22.40;;;5.20;;
47804;SDS011;33568;45.286;9.900;2023-10-09T13:31:29;25.33;;;6.07;;
47804;SDS011;33568;45.286;9.900;2023-10-09T13:34:18;26.25;;;5.13;;
47804;SDS011;33568;45.286;9.900;2023-10-09T13:36:44;22.25;;;5.15;;
47804;SDS011;33568;45.286;9.900;2023-10-09T13:39:55;30.60;;;6.68;;
47804;SDS011;33568;45.286;9.900;2023-10-09T13:42:22;26.85;;;6.05;;
47804;SDS011;33568;45.286;9.900;2023-10-09T13:47:41;23.65;;;5.43;;
47804;SDS011;33568;45.286;9.900;2023-10-09T13:50:10;27.13;;;6.28;;
47804;SDS011;33568;45.286;9.900;2023-10-09T13:52:38;25.83;;;5.90;;
47804;SDS011;33568;45.286;9.900;2023-10-09T13:55:06;28.52;;;5.15;;
47804;SDS011;33568;45.286;9.900;2023-10-09T13:57:59;18.58;;;5.20;;
47804;SDS011;33568;45.286;9.900;2023-10-09T14:00:26;18.08;;;5.57;;
47804;SDS011;33568;45.286;9.900;2023-10-09T14:03:02;17.60;;;5.10;;
47804;SDS011;33568;45.286;9.900;2023-10-09T14:05:37;21.23;;;4.82;;
47804;SDS011;33568;45.286;9.900;2023-10-09T14:08:28;25.08;;;4.90;;
47804;SDS011;33568;45.286;9.900;2023-10-09T14:11:13;18.80;;;5.38;;
47804;SDS011;33568;45.286;9.900;2023-10-09T14:13:40;19.45;;;4.60;;
47804;SDS011;33568;45.286;9.900;2023-10-09T14:18:58;29.17;;;5.22;;
47804;SDS011;33568;45.286;9.900;2023-10-09T14:21:44;13.75;;;4.22;;
47804;SDS011;33568;45.286;9.900;2023-10-09T14:24:15;15.57;;;5.35;;
47804;SDS011;33568;45.286;9.900;2023-10-09T14:27:00;28.00;;;5.35;;
47804;SDS011;33568;45.286;9.900;2023-10-09T14:29:33;21.55;;;5.15;;
47804;SDS011;33568;45.286;9.900;2023-10-09T14:32:03;22.55;;;4.82;;
47804;SDS011;33568;45.286;9.900;2023-10-09T14:35:07;22.17;;;5.57;;
47804;SDS011;33568;45.286;9.900;2023-10-09T14:38:14;25.98;;;5.65;;
47804;SDS011;33568;45.286;9.900;2023-10-09T14:40:59;14.95;;;5.00;;
47804;SDS011;33568;45.286;9.900;2023-10-09T14:43:26;16.95;;;4.80;;
47804;SDS011;33568;45.286;9.900;2023-10-09T14:45:59;23.33;;;4.75;;
47804;SDS011;33568;45.286;9.900;2023-10-09T14:48:44;22.17;;;5.93;;
47804;SDS011;33568;45.286;9.900;2023-10-09T14:51:11;24.35;;;5.03;;
47804;SDS011;33568;45.286;9.900;2023-10-09T14:53:39;27.50;;;5.60;;
47804;SDS011;33568;45.286;9.900;2023-10-09T14:56:06;21.17;;;5.28;;
47804;SDS011;33568;45.286;9.900;2023-10-09T14:58:35;17.30;;;5.35;;
47804;SDS011;33568;45.286;9.900;2023-10-09T15:01:21;21.73;;;4.57;;
47804;SDS011;33568;45.286;9.900;2023-10-09T15:03:50;24.90;;;5.65;;
47804;SDS011;33568;45.286;9.900;2023-10-09T15:06:26;25.50;;;5.35;;
47804;SDS011;33568;45.286;9.900;2023-10-09T15:08:55;22.30;;;5.20;;
47804;SDS011;33568;45.286;9.900;2023-10-09T15:11:26;22.33;;;5.60;;
47804;SDS011;33568;45.286;9.900;2023-10-09T15:13:55;24.27;;;4.57;;
47804;SDS011;33568;45.286;9.900;2023-10-09T15:16:39;22.52;;;5.32;;
47804;SDS011;33568;45.286;9.900;2023-10-09T15:22:11;15.70;;;5.07;;
47804;SDS011;33568;45.286;9.900;2023-10-09T15:27:23;25.20;;;5.60;;
47804;SDS011;33568;45.286;9.900;2023-10-09T15:29:50;24.85;;;6.20;;
47804;SDS011;33568;45.286;9.900;2023-10-09T15:32:35;23.33;;;5.10;;
47804;SDS011;33568;45.286;9.900;2023-10-09T15:35:22;26.40;;;6.40;;
47804;SDS011;33568;45.286;9.900;2023-10-09T15:37:49;19.40;;;5.63;;
47804;SDS011;33568;45.286;9.900;2023-10-09T15:40:18;31.10;;;5.00;;
47804;SDS011;33568;45.286;9.900;2023-10-09T15:43:08;26.85;;;6.78;;
47804;SDS011;33568;45.286;9.900;2023-10-09T15:45:53;33.60;;;5.40;;
47804;SDS011;33568;45.286;9.900;2023-10-09T15:48:58;33.75;;;7.05;;
47804;SDS011;33568;45.286;9.900;2023-10-09T15:51:27;29.33;;;7.10;;
47804;SDS011;33568;45.286;9.900;2023-10-09T15:57:35;24.50;;;6.53;;
47804;SDS011;33568;45.286;9.900;2023-10-09T16:00:01;28.35;;;5.88;;
47804;SDS011;33568;45.286;9.900;2023-10-09T16:05:43;28.08;;;8.90;;
47804;SDS011;33568;45.286;9.900;2023-10-09T16:08:09;27.92;;;8.40;;
47804;SDS011;33568;45.286;9.900;2023-10-09T16:10:36;29.00;;;7.57;;
47804;SDS011;33568;45.286;9.900;2023-10-09T16:13:03;28.38;;;6.80;;
47804;SDS011;33568;45.286;9.900;2023-10-09T16:15:48;23.30;;;6.07;;
47804;SDS011;33568;45.286;9.900;2023-10-09T16:18:52;38.42;;;6.47;;
47804;SDS011;33568;45.286;9.900;2023-10-09T16:21:18;36.55;;;6.65;;
47804;SDS011;33568;45.286;9.900;2023-10-09T16:23:45;27.02;;;6.63;;
47804;SDS011;33568;45.286;9.900;2023-10-09T16:26:30;34.42;;;5.75;;
47804;SDS011;33568;45.286;9.900;2023-10-09T16:29:18;27.20;;;6.28;;
47804;SDS011;33568;45.286;9.900;2023-10-09T16:32:04;38.33;;;6.80;;
47804;SDS011;33568;45.286;9.900;2023-10-09T16:37:19;26.02;;;6.72;;
47804;SDS011;33568;45.286;9.900;2023-10-09T16:39:48;22.52;;;5.70;;
47804;SDS011;33568;45.286;9.900;2023-10-09T16:42:38;22.58;;;5.40;;
47804;SDS011;33568;45.286;9.900;2023-10-09T16:45:23;34.35;;;5.95;;
47804;SDS011;33568;45.286;9.900;2023-10-09T16:48:10;17.08;;;5.10;;
47804;SDS011;33568;45.286;9.900;2023-10-09T16:50:55;25.50;;;5.85;;
47804;SDS011;33568;45.286;9.900;2023-10-09T16:53:22;22.95;;;5.55;;
47804;SDS011;33568;45.286;9.900;2023-10-09T16:55:48;14.27;;;4.65;;
47804;SDS011;33568;45.286;9.900;2023-10-09T16:58:33;25.73;;;5.57;;
47804;SDS011;33568;45.286;9.900;2023-10-09T17:01:00;23.58;;;5.55;;
47804;SDS011;33568;45.286;9.900;2023-10-09T17:03:29;23.05;;;5.68;;
47804;SDS011;33568;45.286;9.900;2023-10-09T17:09:00;24.25;;;5.13;;
47804;SDS011;33568;45.286;9.900;2023-10-09T17:11:32;28.58;;;6.63;;
47804;SDS011;33568;45.286;9.900;2023-10-09T17:14:35;23.10;;;6.57;;
47804;SDS011;33568;45.286;9.900;2023-10-09T17:17:03;18.75;;;4.60;;
47804;SDS011;33568;45.286;9.900;2023-10-09T17:19:49;16.87;;;4.27;;
47804;SDS011;33568;45.286;9.900;2023-10-09T17:22:15;13.10;;;5.10;;
47804;SDS011;33568;45.286;9.900;2023-10-09T17:25:01;18.75;;;6.90;;
47804;SDS011;33568;45.286;9.900;2023-10-09T17:27:30;16.98;;;4.85;;
47804;SDS011;33568;45.286;9.900;2023-10-09T17:29:56;18.63;;;5.28;;
47804;SDS011;33568;45.286;9.900;2023-10-09T17:35:11;28.75;;;6.70;;
47804;SDS011;33568;45.286;9.900;2023-10-09T17:37:39;26.83;;;6.22;;
47804;SDS011;33568;45.286;9.900;2023-10-09T17:42:56;20.27;;;6.03;;
47804;SDS011;33568;45.286;9.900;2023-10-09T17:45:22;29.45;;;5.97;;
47804;SDS011;33568;45.286;9.900;2023-10-09T17:48:07;27.27;;;4.93;;
47804;SDS011;33568;45.286;9.900;2023-10-09T17:50:41;23.02;;;6.20;;
47804;SDS011;33568;45.286;9.900;2023-10-09T17:53:11;22.42;;;6.13;;